createdAt,value
2017-06-19T00:00:29.174Z,54.00
2017-06-19T00:02:56.700Z,53.90
2017-06-19T00:05:24.242Z,54.10
2017-06-19T00:07:51.786Z,54.20
2017-06-19T00:10:20.100Z,54.40
2017-06-19T00:12:47.649Z,54.40
2017-06-19T00:15:15.166Z,54.60
2017-06-19T00:17:43.506Z,54.20
2017-06-19T00:20:11.042Z,54.50
2017-06-19T00:22:44.198Z,54.50
2017-06-19T00:25:11.702Z,54.60
2017-06-19T00:27:39.252Z,54.80
2017-06-19T00:30:06.795Z,55.20
2017-06-19T00:32:35.118Z,55.00
2017-06-19T00:35:02.650Z,54.80
2017-06-19T00:37:30.225Z,54.90
2017-06-19T00:39:57.787Z,55.10
2017-06-19T00:42:25.398Z,55.10
2017-06-19T00:44:52.962Z,55.00
2017-06-19T00:47:21.265Z,55.30
2017-06-19T00:49:48.787Z,55.30
2017-06-19T00:52:16.374Z,55.40
2017-06-19T00:54:43.898Z,55.60
2017-06-19T00:57:11.445Z,55.60
2017-06-19T00:59:38.971Z,55.20
2017-06-19T01:02:06.497Z,55.30
2017-06-19T01:04:34.778Z,55.60
2017-06-19T01:07:03.086Z,56.00
2017-06-19T01:09:30.648Z,55.90
2017-06-19T01:11:58.207Z,56.00
2017-06-19T01:14:25.743Z,56.10
2017-06-19T01:16:54.062Z,56.20
2017-06-19T01:19:21.584Z,56.10
2017-06-19T01:21:49.142Z,55.80
2017-06-19T01:24:16.700Z,55.80
2017-06-19T01:26:44.258Z,56.00
2017-06-19T01:29:11.822Z,56.10
2017-06-19T01:31:39.345Z,56.00
2017-06-19T01:34:06.872Z,55.80
2017-06-19T01:36:34.418Z,56.00
2017-06-19T01:39:01.942Z,56.00
2017-06-19T01:41:30.230Z,56.20
2017-06-19T01:43:58.544Z,56.30
2017-06-19T01:46:26.065Z,56.20
2017-06-19T01:48:53.625Z,56.30
2017-06-19T01:51:21.913Z,56.30
2017-06-19T01:53:49.439Z,56.20
2017-06-19T01:56:16.964Z,56.20
2017-06-19T01:58:44.523Z,56.10
2017-06-19T02:01:12.074Z,56.20
2017-06-19T02:03:39.611Z,56.10
2017-06-19T02:06:07.132Z,56.00
2017-06-19T02:08:34.675Z,56.10
2017-06-19T02:11:02.229Z,56.10
2017-06-19T02:13:29.847Z,56.00
2017-06-19T02:15:57.380Z,56.20
2017-06-19T02:18:25.701Z,55.90
2017-06-19T02:20:53.227Z,55.90
2017-06-19T02:23:20.754Z,55.90
2017-06-19T02:25:48.294Z,55.80
2017-06-19T02:28:15.856Z,55.60
2017-06-19T02:30:43.417Z,55.80
2017-06-19T02:33:10.999Z,55.70
2017-06-19T02:35:38.573Z,55.50
2017-06-19T02:38:06.093Z,55.70
2017-06-19T02:40:33.622Z,55.70
2017-06-19T02:43:01.909Z,56.40
2017-06-19T02:45:29.427Z,56.30
2017-06-19T02:47:56.964Z,56.20
2017-06-19T02:50:24.494Z,56.40
2017-06-19T02:52:52.039Z,57.00
2017-06-19T02:55:20.325Z,56.60
2017-06-19T02:57:47.884Z,56.60
2017-06-19T03:00:15.398Z,56.70
2017-06-19T03:02:42.937Z,56.60
2017-06-19T03:05:10.512Z,57.00
2017-06-19T03:07:38.071Z,57.00
2017-06-19T03:10:17.282Z,57.20
2017-06-19T03:12:44.844Z,57.10
2017-06-19T03:15:12.358Z,57.00
2017-06-19T03:17:39.915Z,57.00
2017-06-19T03:20:08.221Z,57.40
2017-06-19T03:22:35.782Z,57.40
2017-06-19T03:25:03.303Z,57.50
2017-06-19T03:27:30.821Z,57.50
2017-06-19T03:29:58.397Z,57.50
2017-06-19T03:32:25.914Z,57.10
2017-06-19T03:34:53.465Z,57.10
2017-06-19T03:37:20.988Z,57.10
2017-06-19T03:39:48.526Z,57.10
2017-06-19T03:42:16.054Z,56.90
2017-06-19T03:44:43.603Z,56.90
2017-06-19T03:47:11.874Z,57.00
2017-06-19T03:49:39.406Z,56.90
2017-06-19T03:52:06.938Z,57.30
2017-06-19T03:54:34.481Z,57.40
2017-06-19T03:57:02.018Z,57.30
2017-06-19T03:59:29.544Z,57.50
2017-06-19T04:01:57.102Z,57.30
2017-06-19T04:04:24.662Z,57.40
2017-06-19T04:06:52.168Z,57.50
2017-06-19T04:09:19.725Z,57.40
2017-06-19T04:11:47.251Z,57.40
2017-06-19T04:14:14.783Z,57.40
2017-06-19T04:16:42.315Z,56.90
2017-06-19T04:19:09.877Z,56.90
2017-06-19T04:21:37.415Z,56.80
2017-06-19T04:24:05.713Z,57.00
2017-06-19T04:26:33.247Z,56.40
2017-06-19T04:29:00.795Z,56.40
2017-06-19T04:31:28.383Z,56.20
2017-06-19T04:33:55.924Z,55.60
2017-06-19T04:36:24.239Z,55.00
2017-06-19T04:38:51.810Z,55.00
2017-06-19T04:41:19.370Z,55.10
2017-06-19T04:43:46.939Z,54.80
2017-06-19T04:46:14.468Z,54.70
2017-06-19T04:48:42.009Z,54.50
2017-06-19T04:51:10.286Z,54.00
2017-06-19T04:53:38.597Z,53.90
2017-06-19T04:56:06.123Z,53.90
2017-06-19T04:58:34.482Z,53.50
2017-06-19T05:01:01.998Z,53.30
2017-06-19T05:03:29.598Z,53.80
2017-06-19T05:05:57.147Z,53.50
2017-06-19T05:08:24.671Z,53.50
2017-06-19T05:10:52.230Z,53.30
2017-06-19T05:13:19.726Z,53.30
2017-06-19T05:15:47.288Z,53.20
2017-06-19T05:18:14.789Z,53.70
2017-06-19T05:20:43.095Z,53.60
2017-06-19T05:23:10.702Z,53.50
2017-06-19T05:25:38.271Z,53.40
2017-06-19T05:28:06.560Z,53.40
2017-06-19T05:30:34.847Z,53.80
2017-06-19T05:33:02.379Z,53.70
2017-06-19T05:35:30.688Z,53.10
2017-06-19T05:37:58.198Z,52.40
2017-06-19T05:40:25.750Z,52.30
2017-06-19T05:42:53.282Z,52.00
2017-06-19T05:45:20.858Z,51.40
2017-06-19T05:47:48.407Z,51.50
2017-06-19T05:50:15.959Z,51.70
2017-06-19T05:52:43.462Z,51.40
2017-06-19T05:55:22.718Z,51.30
2017-06-19T05:57:51.818Z,51.00
2017-06-19T06:00:20.963Z,51.50
2017-06-19T06:02:49.739Z,51.50
2017-06-19T06:05:17.346Z,51.50
2017-06-19T06:07:45.489Z,51.80
2017-06-19T06:10:13.037Z,51.20
2017-06-19T06:12:40.670Z,50.90
2017-06-19T06:15:08.226Z,50.60
2017-06-19T06:17:35.739Z,50.40
2017-06-19T06:20:03.384Z,50.10
2017-06-19T06:22:30.911Z,49.80
2017-06-19T06:24:58.445Z,49.70
2017-06-19T06:27:26.724Z,49.80
2017-06-19T06:29:54.238Z,49.10
2017-06-19T06:32:21.773Z,48.50
2017-06-19T06:34:49.297Z,48.50
2017-06-19T06:37:16.819Z,47.90
2017-06-19T06:39:44.383Z,46.80
2017-06-19T06:42:11.886Z,45.30
2017-06-19T06:44:39.418Z,41.70
2017-06-19T06:47:07.270Z,37.50
2017-06-19T06:49:34.835Z,34.10
2017-06-19T06:52:02.449Z,29.30
2017-06-19T06:54:29.988Z,27.70
2017-06-19T06:56:57.696Z,26.60
2017-06-19T06:59:25.572Z,25.00
2017-06-19T07:01:53.090Z,23.80
2017-06-19T07:04:21.000Z,21.70
2017-06-19T07:06:48.530Z,21.40
2017-06-19T07:09:16.033Z,20.80
2017-06-19T07:11:43.588Z,20.10
2017-06-19T07:14:11.114Z,20.10
2017-06-19T07:16:38.646Z,20.00
2017-06-19T07:19:06.177Z,19.70
2017-06-19T07:21:33.725Z,19.20
2017-06-19T07:24:01.255Z,19.10
2017-06-19T07:26:28.844Z,18.10
2017-06-19T07:28:56.385Z,17.20
2017-06-19T07:31:23.933Z,17.10
2017-06-19T07:33:51.442Z,16.10
2017-06-19T07:36:18.958Z,16.60
2017-06-19T07:38:46.458Z,16.50
2017-06-19T07:41:13.974Z,16.40
2017-06-19T07:43:41.485Z,16.20
2017-06-19T07:46:09.036Z,15.30
2017-06-19T07:48:36.533Z,14.80
2017-06-19T07:51:04.872Z,15.70
2017-06-19T07:53:32.374Z,15.70
2017-06-19T07:55:59.962Z,15.20
2017-06-19T07:58:27.466Z,14.90
2017-06-19T08:00:55.034Z,15.00
2017-06-19T08:03:22.550Z,15.60
2017-06-19T08:05:50.066Z,15.70
2017-06-19T08:08:18.354Z,16.20
2017-06-19T08:10:45.886Z,16.50
2017-06-19T08:13:13.430Z,16.60
2017-06-19T08:15:41.022Z,17.20
2017-06-19T08:18:08.598Z,17.80
2017-06-19T08:20:36.138Z,17.40
2017-06-19T08:23:03.723Z,18.20
2017-06-19T08:25:31.274Z,19.00
2017-06-19T08:27:58.793Z,20.30
2017-06-19T08:30:26.306Z,21.70
2017-06-19T08:32:53.839Z,22.80
2017-06-19T08:35:22.114Z,22.90
2017-06-19T08:37:50.393Z,25.50
2017-06-19T08:40:17.925Z,25.40
2017-06-19T08:42:45.442Z,23.90
2017-06-19T08:45:12.946Z,23.80
2017-06-19T08:47:40.462Z,23.20
2017-06-19T08:50:07.979Z,23.40
2017-06-19T08:52:35.520Z,23.50
2017-06-19T08:55:03.034Z,23.30
2017-06-19T08:57:30.610Z,22.90
2017-06-19T08:59:58.141Z,22.70
2017-06-19T09:02:25.727Z,22.80
2017-06-19T09:04:53.229Z,23.60
2017-06-19T09:07:20.754Z,23.40
2017-06-19T09:09:48.809Z,23.30
2017-06-19T09:12:18.935Z,24.30
2017-06-19T09:14:46.466Z,23.00
2017-06-19T09:17:13.990Z,23.10
2017-06-19T09:19:41.494Z,22.90
2017-06-19T09:22:09.039Z,22.90
2017-06-19T09:24:36.565Z,22.90
2017-06-19T09:27:04.118Z,21.90
2017-06-19T09:29:31.645Z,22.00
2017-06-19T09:31:59.180Z,22.40
2017-06-19T09:34:26.727Z,22.00
2017-06-19T09:36:55.062Z,23.20
2017-06-19T09:39:22.571Z,22.80
2017-06-19T09:41:50.921Z,22.60
2017-06-19T09:44:18.441Z,22.50
2017-06-19T09:46:45.973Z,23.10
2017-06-19T09:49:14.306Z,21.60
2017-06-19T09:51:41.851Z,21.50
2017-06-19T09:54:09.377Z,21.40
2017-06-19T09:56:36.906Z,22.10
2017-06-19T09:59:04.415Z,23.00
2017-06-19T10:01:31.974Z,22.20
2017-06-19T10:03:59.490Z,22.10
2017-06-19T10:06:30.146Z,21.70
2017-06-19T10:08:57.661Z,23.30
2017-06-19T10:11:25.188Z,21.60
2017-06-19T10:13:52.706Z,21.00
2017-06-19T10:16:20.207Z,22.40
2017-06-19T10:18:47.726Z,21.50
2017-06-19T10:21:16.037Z,22.10
2017-06-19T10:23:43.566Z,22.10
2017-06-19T10:26:11.106Z,21.50
2017-06-19T10:28:38.634Z,22.90
2017-06-19T10:31:06.127Z,22.80
2017-06-19T10:33:33.646Z,22.60
2017-06-19T10:36:01.154Z,22.50
2017-06-19T10:38:28.681Z,21.70
2017-06-19T10:40:56.254Z,21.50
2017-06-19T10:43:23.798Z,21.50
2017-06-19T10:45:51.291Z,22.50
2017-06-19T10:48:18.814Z,21.60
2017-06-19T10:50:46.321Z,22.00
2017-06-19T10:53:13.864Z,21.60
2017-06-19T10:55:41.366Z,21.30
2017-06-19T10:58:09.059Z,20.70
2017-06-19T11:00:36.563Z,21.20
2017-06-19T11:03:04.133Z,19.50
2017-06-19T11:05:31.650Z,20.30
2017-06-19T11:07:59.170Z,20.70
2017-06-19T11:10:26.677Z,20.10
2017-06-19T11:12:54.210Z,21.60
2017-06-19T11:15:21.726Z,20.80
2017-06-19T11:17:49.246Z,21.20
2017-06-19T11:20:16.753Z,21.50
2017-06-19T11:22:44.278Z,20.70
2017-06-19T11:25:11.804Z,21.00
2017-06-19T11:27:39.331Z,20.20
2017-06-19T11:30:06.863Z,19.20
2017-06-19T11:32:34.387Z,20.60
2017-06-19T11:35:01.890Z,19.90
2017-06-19T11:37:29.446Z,20.40
2017-06-19T11:39:57.726Z,20.40
2017-06-19T11:42:26.102Z,20.80
2017-06-19T11:44:54.386Z,19.30
2017-06-19T11:47:21.946Z,19.30
2017-06-19T11:49:50.260Z,21.80
2017-06-19T11:52:17.801Z,21.80
2017-06-19T11:54:45.326Z,21.10
2017-06-19T11:57:12.822Z,20.60
2017-06-19T11:59:40.370Z,20.90
2017-06-19T12:02:07.878Z,21.10
2017-06-19T12:04:35.403Z,20.10
2017-06-19T12:07:02.998Z,20.70
2017-06-19T12:09:30.514Z,20.30
2017-06-19T12:11:58.013Z,20.30
2017-06-19T12:14:25.523Z,20.40
2017-06-19T12:16:53.022Z,20.70
2017-06-19T12:19:20.555Z,20.40
2017-06-19T12:21:48.112Z,19.40
2017-06-19T12:24:15.682Z,19.90
2017-06-19T12:26:43.181Z,20.20
2017-06-19T12:29:10.700Z,20.10
2017-06-19T12:31:38.209Z,20.90
2017-06-19T12:34:05.762Z,20.40
2017-06-19T12:36:33.289Z,20.90
2017-06-19T12:39:00.819Z,21.70
2017-06-19T12:41:28.347Z,22.20
2017-06-19T12:43:55.967Z,21.30
2017-06-19T12:46:23.470Z,21.80
2017-06-19T12:48:51.070Z,21.80
2017-06-19T12:51:18.603Z,21.70
2017-06-19T12:53:46.146Z,21.80
2017-06-19T12:56:13.673Z,20.60
2017-06-19T12:58:41.213Z,20.70
2017-06-19T13:01:08.767Z,20.50
2017-06-19T13:03:36.340Z,19.90
2017-06-19T13:06:03.854Z,19.20
2017-06-19T13:08:31.374Z,19.10
2017-06-19T13:10:58.901Z,19.50
2017-06-19T13:13:26.428Z,20.20
2017-06-19T13:15:53.957Z,20.80
2017-06-19T13:18:21.503Z,20.50
2017-06-19T13:20:49.022Z,21.20
2017-06-19T13:23:17.307Z,19.80
2017-06-19T13:25:44.864Z,19.70
2017-06-19T13:28:12.388Z,20.30
2017-06-19T13:30:39.918Z,20.00
2017-06-19T13:33:07.446Z,21.20
2017-06-19T13:35:34.979Z,21.00
2017-06-19T13:38:02.534Z,20.10
2017-06-19T13:40:30.078Z,21.20
2017-06-19T13:42:57.590Z,20.40
2017-06-19T13:45:25.121Z,20.20
2017-06-19T13:47:53.422Z,21.90
2017-06-19T13:50:20.982Z,21.80
2017-06-19T13:52:48.505Z,21.40
2017-06-19T13:55:16.057Z,20.40
2017-06-19T13:57:43.570Z,20.50
2017-06-19T14:00:11.101Z,19.50
2017-06-19T14:02:38.608Z,19.30
2017-06-19T14:05:06.138Z,18.90
2017-06-19T14:07:33.654Z,19.20
2017-06-19T14:10:01.186Z,18.20
2017-06-19T14:12:28.683Z,19.70
2017-06-19T14:14:56.241Z,21.20
2017-06-19T14:17:23.742Z,21.70
2017-06-19T14:19:51.300Z,22.40
2017-06-19T14:22:18.825Z,21.60
2017-06-19T14:24:46.349Z,22.40
2017-06-19T14:27:13.875Z,21.70
2017-06-19T14:29:41.438Z,20.30
2017-06-19T14:32:08.978Z,19.90
2017-06-19T14:34:36.543Z,20.50
2017-06-19T14:37:04.818Z,20.90
2017-06-19T14:39:32.407Z,20.80
2017-06-19T14:41:59.941Z,20.90
2017-06-19T14:44:27.465Z,21.30
2017-06-19T14:46:55.030Z,20.60
2017-06-19T14:49:22.546Z,19.40
2017-06-19T14:51:50.073Z,21.60
2017-06-19T14:54:18.360Z,21.70
2017-06-19T14:56:46.637Z,23.20
2017-06-19T14:59:14.170Z,23.20
2017-06-19T15:01:41.693Z,22.50
2017-06-19T15:04:09.186Z,22.40
2017-06-19T15:06:36.707Z,22.40
2017-06-19T15:09:04.242Z,22.20
2017-06-19T15:11:31.769Z,23.20
2017-06-19T15:13:59.286Z,22.70
2017-06-19T15:16:26.849Z,22.90
2017-06-19T15:18:54.350Z,22.80
2017-06-19T15:21:27.598Z,22.70
2017-06-19T15:23:55.111Z,22.60
2017-06-19T15:26:22.652Z,22.40
2017-06-19T15:28:50.163Z,22.00
2017-06-19T15:31:17.726Z,22.20
2017-06-19T15:33:45.249Z,22.90
2017-06-19T15:36:12.857Z,22.10
2017-06-19T15:38:40.371Z,22.50
2017-06-19T15:41:07.892Z,22.20
2017-06-19T15:43:35.437Z,22.90
2017-06-19T15:46:02.987Z,23.20
2017-06-19T15:48:30.510Z,23.80
2017-06-19T15:50:58.851Z,23.50
2017-06-19T15:53:26.360Z,23.90
2017-06-19T15:55:53.924Z,23.20
2017-06-19T15:58:21.441Z,23.40
2017-06-19T16:00:48.970Z,23.00
2017-06-19T16:03:16.508Z,22.90
2017-06-19T16:05:44.030Z,23.00
2017-06-19T16:08:11.571Z,23.30
2017-06-19T16:10:39.117Z,24.00
2017-06-19T16:13:06.639Z,24.30
2017-06-19T16:15:34.929Z,23.60
2017-06-19T16:18:02.439Z,23.60
2017-06-19T16:20:29.990Z,23.80
2017-06-19T16:22:57.503Z,23.50
2017-06-19T16:25:25.062Z,23.20
2017-06-19T16:27:52.569Z,23.50
2017-06-19T16:30:20.090Z,24.00
2017-06-19T16:32:47.594Z,23.60
2017-06-19T16:35:15.122Z,24.00
2017-06-19T16:37:42.638Z,23.70
2017-06-19T16:40:10.942Z,24.90
2017-06-19T16:42:38.481Z,24.80
2017-06-19T16:45:06.758Z,24.60
2017-06-19T16:47:34.291Z,24.60
2017-06-19T16:50:01.808Z,24.90
2017-06-19T16:52:29.338Z,24.40
2017-06-19T16:54:56.864Z,24.40
2017-06-19T16:57:24.413Z,24.50
2017-06-19T16:59:52.764Z,24.80
2017-06-19T17:02:20.332Z,25.10
2017-06-19T17:04:47.830Z,25.20
2017-06-19T17:07:15.350Z,25.20
2017-06-19T17:09:42.858Z,25.40
2017-06-19T17:12:10.383Z,25.60
2017-06-19T17:14:37.881Z,26.00
2017-06-19T17:17:06.185Z,26.00
2017-06-19T17:19:33.697Z,25.50
2017-06-19T17:22:01.264Z,25.80
2017-06-19T17:24:28.824Z,26.10
2017-06-19T17:26:56.362Z,25.80
2017-06-19T17:29:23.913Z,26.20
2017-06-19T17:31:51.445Z,26.20
2017-06-19T17:34:18.945Z,25.90
2017-06-19T17:36:46.474Z,26.40
2017-06-19T17:39:13.981Z,26.40
2017-06-19T17:41:41.498Z,26.70
2017-06-19T17:44:09.055Z,26.60
2017-06-19T17:46:36.586Z,26.80
2017-06-19T17:49:04.874Z,27.30
2017-06-19T17:51:32.432Z,27.20
2017-06-19T17:54:00.022Z,27.30
2017-06-19T17:56:27.547Z,27.40
2017-06-19T17:58:55.081Z,28.20
2017-06-19T18:01:22.629Z,27.60
2017-06-19T18:03:50.120Z,27.70
2017-06-19T18:06:17.667Z,27.60
2017-06-19T18:08:46.001Z,27.40
2017-06-19T18:11:13.534Z,27.40
2017-06-19T18:13:41.090Z,28.50
2017-06-19T18:16:08.635Z,28.20
2017-06-19T18:18:36.211Z,28.20
2017-06-19T18:21:03.706Z,28.70
2017-06-19T18:23:31.233Z,29.30
2017-06-19T18:25:58.737Z,28.70
2017-06-19T18:28:26.291Z,29.20
2017-06-19T18:30:53.862Z,29.70
2017-06-19T18:33:21.414Z,30.90
2017-06-19T18:35:48.934Z,30.00
2017-06-19T18:38:16.475Z,31.40
2017-06-19T18:40:44.758Z,31.80
2017-06-19T18:43:12.309Z,31.80
2017-06-19T18:45:40.581Z,31.80
2017-06-19T18:48:08.899Z,32.40
2017-06-19T18:50:36.402Z,32.30
2017-06-19T18:53:03.935Z,33.90
2017-06-19T18:55:31.486Z,33.80
2017-06-19T18:57:59.059Z,33.30
2017-06-19T19:00:26.577Z,34.90
2017-06-19T19:02:54.103Z,34.70
2017-06-19T19:05:21.650Z,33.70
2017-06-19T19:07:49.161Z,36.40
2017-06-19T19:10:16.673Z,37.50
2017-06-19T19:12:44.247Z,38.20
2017-06-19T19:15:12.554Z,38.90
2017-06-19T19:17:40.082Z,38.00
2017-06-19T19:20:08.608Z,38.10
2017-06-19T19:22:36.139Z,38.00
2017-06-19T19:25:04.411Z,37.90
2017-06-19T19:27:32.695Z,39.50
2017-06-19T19:30:00.257Z,39.50
2017-06-19T19:32:28.545Z,42.00
2017-06-19T19:34:56.062Z,41.90
2017-06-19T19:37:23.610Z,41.00
2017-06-19T19:39:51.142Z,42.20
2017-06-19T19:42:18.670Z,42.40
2017-06-19T19:44:46.198Z,41.30
2017-06-19T19:47:13.729Z,43.10
2017-06-19T19:49:41.238Z,40.60
2017-06-19T19:52:08.788Z,43.30
2017-06-19T19:54:36.347Z,43.80
2017-06-19T19:57:03.854Z,43.30
2017-06-19T19:59:31.415Z,43.50
2017-06-19T20:01:58.926Z,43.10
2017-06-19T20:04:26.450Z,41.90
2017-06-19T20:06:53.962Z,38.70
2017-06-19T20:09:22.245Z,38.70
2017-06-19T20:11:50.518Z,39.00
2017-06-19T20:14:18.050Z,39.00
2017-06-19T20:16:45.577Z,39.10
2017-06-19T20:19:13.097Z,40.50
2017-06-19T20:21:41.374Z,42.20
2017-06-19T20:24:08.915Z,42.20
2017-06-19T20:26:36.427Z,42.30
2017-06-19T20:29:03.963Z,43.60
2017-06-19T20:31:31.476Z,43.40
2017-06-19T20:33:59.014Z,43.30
2017-06-19T20:36:26.514Z,44.60
2017-06-19T20:38:54.058Z,44.80
2017-06-19T20:41:21.558Z,44.70
2017-06-19T20:43:49.126Z,45.00
2017-06-19T20:46:16.642Z,43.90
2017-06-19T20:48:44.165Z,46.00
2017-06-19T20:51:11.678Z,45.30
2017-06-19T20:53:39.223Z,44.70
2017-06-19T20:56:07.510Z,45.30
2017-06-19T20:58:35.827Z,42.70
2017-06-19T21:01:03.359Z,42.70
2017-06-19T21:03:30.911Z,43.20
2017-06-19T21:05:59.200Z,45.40
2017-06-19T21:08:26.757Z,45.40
2017-06-19T21:10:55.046Z,46.00
2017-06-19T21:13:22.569Z,46.00
2017-06-19T21:15:50.064Z,46.70
2017-06-19T21:18:17.586Z,45.10
2017-06-19T21:20:45.109Z,46.00
2017-06-19T21:23:12.646Z,45.70
2017-06-19T21:25:40.168Z,46.80
2017-06-19T21:28:07.733Z,45.20
2017-06-19T21:30:35.237Z,46.40
2017-06-19T21:33:02.794Z,47.10
2017-06-19T21:35:30.323Z,45.30
2017-06-19T21:37:57.838Z,45.20
2017-06-19T21:40:25.386Z,44.90
2017-06-19T21:42:52.919Z,46.30
2017-06-19T21:45:20.446Z,47.20
2017-06-19T21:47:47.972Z,47.90
2017-06-19T21:50:15.530Z,47.60
2017-06-19T21:52:43.045Z,48.60
2017-06-19T21:55:12.167Z,49.90
2017-06-19T21:57:39.684Z,49.80
2017-06-19T22:00:07.227Z,49.00
2017-06-19T22:02:34.723Z,49.50
2017-06-19T22:05:02.257Z,49.60
2017-06-19T22:07:29.777Z,49.00
2017-06-19T22:09:57.314Z,48.60
2017-06-19T22:12:24.845Z,49.50
2017-06-19T22:14:53.150Z,51.50
2017-06-19T22:17:20.686Z,51.10
2017-06-19T22:19:48.239Z,50.00
2017-06-19T22:22:21.398Z,51.30
2017-06-19T22:24:48.949Z,50.70
2017-06-19T22:27:16.489Z,51.00
2017-06-19T22:29:44.023Z,51.00
2017-06-19T22:32:11.545Z,51.80
2017-06-19T22:34:39.082Z,51.30
2017-06-19T22:37:06.598Z,51.60
2017-06-19T22:39:34.129Z,52.60
2017-06-19T22:42:01.700Z,51.90
2017-06-19T22:44:30.030Z,52.00
2017-06-19T22:46:57.538Z,51.90
2017-06-19T22:49:25.868Z,53.20
2017-06-19T22:51:53.394Z,52.70
2017-06-19T22:54:21.738Z,52.60
2017-06-19T22:56:49.243Z,52.60
2017-06-19T22:59:17.550Z,51.80
2017-06-19T23:01:45.078Z,51.80
2017-06-19T23:04:13.390Z,52.80
2017-06-19T23:06:41.746Z,52.70
2017-06-19T23:09:09.282Z,52.50
2017-06-19T23:11:36.803Z,53.00
2017-06-19T23:14:04.361Z,52.60
2017-06-19T23:16:31.886Z,53.00
2017-06-19T23:18:59.418Z,53.20
2017-06-19T23:21:27.710Z,52.70
2017-06-19T23:23:55.222Z,52.70
2017-06-19T23:26:22.823Z,53.80
2017-06-19T23:28:50.347Z,53.30
2017-06-19T23:31:17.873Z,53.20
2017-06-19T23:33:45.398Z,53.40
2017-06-19T23:36:12.939Z,53.10
2017-06-19T23:38:40.493Z,53.50
2017-06-19T23:41:08.026Z,53.30
2017-06-19T23:43:35.543Z,54.10
2017-06-19T23:46:03.856Z,52.70
2017-06-19T23:48:31.389Z,52.60
2017-06-19T23:50:58.922Z,53.30
2017-06-19T23:53:26.445Z,53.30
2017-06-19T23:55:53.999Z,53.50
2017-06-19T23:58:21.508Z,53.30
